createdAt,value
2023-03-24T00:00:20.449Z,1.20
2023-03-24T00:02:51.428Z,1.60
2023-03-24T00:05:21.300Z,1.10
2023-03-24T00:07:55.036Z,1.83
2023-03-24T00:10:24.706Z,1.90
2023-03-24T00:12:54.185Z,1.53
2023-03-24T00:15:24.269Z,1.23
2023-03-24T00:17:53.439Z,1.23
2023-03-24T00:20:23.056Z,1.17
2023-03-24T00:22:56.615Z,1.67
2023-03-24T00:25:29.176Z,1.20
2023-03-24T00:27:58.266Z,1.30
2023-03-24T00:30:27.227Z,1.37
2023-03-24T00:32:59.028Z,1.60
2023-03-24T00:35:28.441Z,1.40
2023-03-24T00:37:58.978Z,1.63
2023-03-24T00:40:28.030Z,1.67
2023-03-24T00:42:56.596Z,1.73
2023-03-24T00:45:25.796Z,1.30
2023-03-24T00:47:54.917Z,1.60
2023-03-24T00:50:27.470Z,1.70
2023-03-24T00:52:56.516Z,1.40
2023-03-24T00:55:28.984Z,1.20
2023-03-24T00:57:57.800Z,1.20
2023-03-24T01:00:27.415Z,1.27
2023-03-24T01:02:57.245Z,1.60
2023-03-24T01:05:27.966Z,1.57
2023-03-24T01:07:58.083Z,1.70
2023-03-24T01:10:30.265Z,1.37
2023-03-24T01:13:00.218Z,1.50
2023-03-24T01:15:30.192Z,1.27
2023-03-24T01:18:02.177Z,1.60
2023-03-24T01:20:33.378Z,1.47
2023-03-24T01:23:02.637Z,1.20
2023-03-24T01:25:32.951Z,1.53
2023-03-24T01:28:01.582Z,1.30
2023-03-24T01:30:31.563Z,1.70
2023-03-24T01:33:00.795Z,1.37
2023-03-24T01:35:29.745Z,2.17
2023-03-24T01:37:58.528Z,1.63
2023-03-24T01:40:28.283Z,1.40
2023-03-24T01:42:59.117Z,1.73
2023-03-24T01:45:43.501Z,1.70
2023-03-24T01:48:14.064Z,1.30
2023-03-24T01:50:44.311Z,1.33
2023-03-24T01:53:13.006Z,1.17
2023-03-24T01:55:41.681Z,1.53
2023-03-24T01:58:11.952Z,2.00
2023-03-24T02:00:42.178Z,1.50
2023-03-24T02:03:14.812Z,1.47
2023-03-24T02:05:45.220Z,1.80
2023-03-24T02:08:16.603Z,1.70
2023-03-24T02:10:46.180Z,1.50
2023-03-24T02:13:16.765Z,1.60
2023-03-24T02:15:48.204Z,1.43
2023-03-24T02:18:21.304Z,1.43
2023-03-24T02:21:14.062Z,1.43
2023-03-24T02:23:55.721Z,1.50
2023-03-24T02:26:39.737Z,1.27
2023-03-24T02:29:21.291Z,1.53
2023-03-24T02:32:04.381Z,1.20
2023-03-24T02:34:50.409Z,1.30
2023-03-24T02:37:27.819Z,1.50
2023-03-24T02:40:02.191Z,1.10
2023-03-24T02:42:37.264Z,1.47
2023-03-24T02:45:11.120Z,1.50
2023-03-24T02:47:45.200Z,1.40
2023-03-24T02:50:19.554Z,1.93
2023-03-24T02:52:50.816Z,1.37
2023-03-24T02:55:23.419Z,1.00
2023-03-24T02:57:53.468Z,1.33
2023-03-24T03:00:24.372Z,1.83
2023-03-24T03:02:55.244Z,0.97
2023-03-24T03:05:27.542Z,1.27
2023-03-24T03:07:58.247Z,1.07
2023-03-24T03:10:31.534Z,1.57
2023-03-24T03:13:03.765Z,1.40
2023-03-24T03:15:36.193Z,1.07
2023-03-24T03:18:10.495Z,1.57
2023-03-24T03:20:42.901Z,1.40
2023-03-24T03:23:13.552Z,1.27
2023-03-24T03:25:50.358Z,1.80
2023-03-24T03:28:22.091Z,1.63
2023-03-24T03:30:53.477Z,1.20
2023-03-24T03:33:25.290Z,1.80
2023-03-24T03:35:55.565Z,1.37
2023-03-24T03:38:26.306Z,1.10
2023-03-24T03:40:57.689Z,1.23
2023-03-24T03:43:28.105Z,1.27
2023-03-24T03:45:57.544Z,1.33
2023-03-24T03:48:26.909Z,1.27
2023-03-24T03:51:10.155Z,1.20
2023-03-24T03:53:43.822Z,1.30
2023-03-24T03:56:14.742Z,1.70
2023-03-24T03:58:47.569Z,1.83
2023-03-24T04:01:18.909Z,1.20
2023-03-24T04:03:59.080Z,1.73
2023-03-24T04:06:33.911Z,1.30
2023-03-24T04:09:08.093Z,1.83
2023-03-24T04:11:45.420Z,1.30
2023-03-24T04:14:21.329Z,1.83
2023-03-24T04:16:56.095Z,1.80
2023-03-24T04:19:33.374Z,1.10
2023-03-24T04:22:09.038Z,1.27
2023-03-24T04:24:42.460Z,1.33
2023-03-24T04:27:14.621Z,1.97
2023-03-24T04:29:47.003Z,1.27
2023-03-24T04:32:19.599Z,1.40
2023-03-24T04:34:50.826Z,1.50
2023-03-24T04:37:21.305Z,1.13
2023-03-24T04:39:50.520Z,1.50
2023-03-24T04:42:23.106Z,1.50
2023-03-24T04:44:51.702Z,1.50
2023-03-24T04:47:21.698Z,1.30
2023-03-24T04:49:50.857Z,1.73
2023-03-24T04:52:19.541Z,1.33
2023-03-24T04:54:48.895Z,2.17
2023-03-24T04:57:17.332Z,1.30
2023-03-24T04:59:47.445Z,1.60
2023-03-24T05:02:15.808Z,2.07
2023-03-24T05:04:45.824Z,1.73
2023-03-24T05:07:15.499Z,1.97
2023-03-24T05:09:44.301Z,1.80
2023-03-24T05:12:13.798Z,2.07
2023-03-24T05:14:42.858Z,1.53
2023-03-24T05:17:13.156Z,1.40
2023-03-24T05:19:41.628Z,1.33
2023-03-24T05:22:10.247Z,1.70
2023-03-24T05:24:40.280Z,1.60
2023-03-24T05:27:08.787Z,1.57
2023-03-24T05:29:39.377Z,1.43
2023-03-24T05:32:08.113Z,1.80
2023-03-24T05:34:38.308Z,1.40
2023-03-24T05:37:07.574Z,1.63
2023-03-24T05:39:36.414Z,1.60
2023-03-24T05:42:05.342Z,1.73
2023-03-24T05:44:34.126Z,2.23
2023-03-24T05:47:04.496Z,1.83
2023-03-24T05:49:32.889Z,2.70
2023-03-24T05:52:07.013Z,1.47
2023-03-24T05:54:35.497Z,1.70
2023-03-24T05:57:04.358Z,1.27
2023-03-24T05:59:33.040Z,1.50
2023-03-24T06:02:01.696Z,1.57
2023-03-24T06:04:31.090Z,1.17
2023-03-24T06:06:59.828Z,1.60
2023-03-24T06:09:36.685Z,1.70
2023-03-24T06:12:07.254Z,1.47
2023-03-24T06:14:38.666Z,1.87
2023-03-24T06:17:07.612Z,1.50
2023-03-24T06:19:38.578Z,1.70
2023-03-24T06:22:07.219Z,1.67
2023-03-24T06:24:37.653Z,1.57
2023-03-24T06:27:09.188Z,1.63
2023-03-24T06:29:37.957Z,1.30
2023-03-24T06:32:06.811Z,1.70
2023-03-24T06:34:35.533Z,1.30
2023-03-24T06:37:04.562Z,1.83
2023-03-24T06:39:33.353Z,1.63
2023-03-24T06:42:03.628Z,1.70
2023-03-24T06:44:32.163Z,2.00
2023-03-24T06:47:01.343Z,1.60
2023-03-24T06:49:29.917Z,1.30
2023-03-24T06:51:59.539Z,1.67
2023-03-24T06:54:28.503Z,1.30
2023-03-24T06:56:57.929Z,1.47
2023-03-24T06:59:29.316Z,1.67
2023-03-24T07:02:00.394Z,1.90
2023-03-24T07:04:29.094Z,1.17
2023-03-24T07:07:14.782Z,1.53
2023-03-24T07:09:47.572Z,1.27
2023-03-24T07:12:17.181Z,2.47
2023-03-24T07:14:47.408Z,1.80
2023-03-24T07:17:17.473Z,2.50
2023-03-24T07:19:46.305Z,1.97
2023-03-24T07:22:15.695Z,2.10
2023-03-24T07:24:44.265Z,2.10
2023-03-24T07:27:12.829Z,1.77
2023-03-24T07:29:41.864Z,1.80
2023-03-24T07:32:12.832Z,2.60
2023-03-24T07:34:49.716Z,1.87
2023-03-24T07:37:19.194Z,2.73
2023-03-24T07:39:48.177Z,2.10
2023-03-24T07:42:16.696Z,2.20
2023-03-24T07:44:46.661Z,2.40
2023-03-24T07:47:17.736Z,2.77
2023-03-24T07:49:47.136Z,2.73
2023-03-24T07:52:15.821Z,2.57
2023-03-24T07:54:45.319Z,2.33
2023-03-24T07:57:14.344Z,2.57
2023-03-24T07:59:43.836Z,2.90
2023-03-24T08:02:14.048Z,2.60
2023-03-24T08:04:45.141Z,3.07
2023-03-24T08:07:13.864Z,2.47
2023-03-24T08:09:42.782Z,2.20
2023-03-24T08:12:20.028Z,2.03
2023-03-24T08:14:49.919Z,2.30
2023-03-24T08:17:19.821Z,2.60
2023-03-24T08:20:00.180Z,2.30
2023-03-24T08:22:29.660Z,2.40
2023-03-24T08:24:58.194Z,1.90
2023-03-24T08:27:28.542Z,2.00
2023-03-24T08:29:57.761Z,3.20
2023-03-24T08:32:26.668Z,2.30
2023-03-24T08:34:56.594Z,2.50
2023-03-24T08:37:25.137Z,2.40
2023-03-24T08:39:59.387Z,2.43
2023-03-24T08:42:27.910Z,2.03
2023-03-24T08:44:56.964Z,2.03
2023-03-24T08:47:25.865Z,2.10
2023-03-24T08:49:58.974Z,2.03
2023-03-24T08:52:28.152Z,2.10
2023-03-24T08:54:59.291Z,1.97
2023-03-24T08:57:27.924Z,1.27
2023-03-24T08:59:56.380Z,1.50
2023-03-24T09:02:25.979Z,1.63
2023-03-24T09:04:56.331Z,1.77
2023-03-24T09:07:27.931Z,1.37
2023-03-24T09:09:57.044Z,1.90
2023-03-24T09:12:29.322Z,1.67
2023-03-24T09:14:58.260Z,1.30
2023-03-24T09:17:26.793Z,1.70
2023-03-24T09:19:55.360Z,1.63
2023-03-24T09:22:23.826Z,1.60
2023-03-24T09:24:54.243Z,1.60
2023-03-24T09:27:23.453Z,1.50
2023-03-24T09:29:53.867Z,1.30
2023-03-24T09:32:23.443Z,1.80
2023-03-24T09:34:53.253Z,1.90
2023-03-24T09:37:21.760Z,1.20
2023-03-24T09:39:51.133Z,1.50
2023-03-24T09:42:23.665Z,0.93
2023-03-24T09:44:54.248Z,1.30
2023-03-24T09:47:27.492Z,1.13
2023-03-24T09:49:57.571Z,2.30
2023-03-24T09:52:29.320Z,0.97
2023-03-24T09:54:59.897Z,1.13
2023-03-24T09:57:32.113Z,1.20
2023-03-24T10:00:00.829Z,1.07
2023-03-24T10:02:32.318Z,1.13
2023-03-24T10:05:01.769Z,1.40
2023-03-24T10:07:34.560Z,1.13
2023-03-24T10:10:03.521Z,1.23
2023-03-24T10:12:37.065Z,1.33
2023-03-24T10:15:08.483Z,1.27
2023-03-24T10:17:43.388Z,1.87
2023-03-24T10:20:21.421Z,1.50
2023-03-24T10:23:09.775Z,1.70
2023-03-24T10:25:44.881Z,1.73
2023-03-24T10:28:19.261Z,1.73
2023-03-24T10:30:50.362Z,1.27
2023-03-24T10:33:19.060Z,1.53
2023-03-24T10:35:53.360Z,1.37
2023-03-24T10:38:22.826Z,1.50
2023-03-24T10:40:52.840Z,1.53
2023-03-24T10:43:24.274Z,1.27
2023-03-24T10:45:54.221Z,1.53
2023-03-24T10:48:44.826Z,1.50
2023-03-24T10:51:26.727Z,2.27
2023-03-24T10:54:11.847Z,1.30
2023-03-24T10:56:41.508Z,1.77
2023-03-24T10:59:20.953Z,1.67
2023-03-24T11:01:49.523Z,1.10
2023-03-24T11:04:20.010Z,1.37
2023-03-24T11:07:05.734Z,1.27
2023-03-24T11:09:41.703Z,1.10
2023-03-24T11:12:22.651Z,1.37
2023-03-24T11:15:14.211Z,0.77
2023-03-24T11:17:55.137Z,0.90
2023-03-24T11:20:27.229Z,1.00
2023-03-24T11:23:01.751Z,0.80
2023-03-24T11:25:33.968Z,1.00
2023-03-24T11:28:04.843Z,0.77
2023-03-24T11:30:36.030Z,0.70
2023-03-24T11:33:07.254Z,1.33
2023-03-24T11:35:41.688Z,1.10
2023-03-24T11:38:15.950Z,1.30
2023-03-24T11:40:54.998Z,1.40
2023-03-24T11:43:23.772Z,0.80
2023-03-24T11:45:57.170Z,1.00
2023-03-24T11:48:29.504Z,0.90
2023-03-24T11:50:59.477Z,0.93
2023-03-24T11:53:29.381Z,1.13
2023-03-24T11:56:01.755Z,0.97
2023-03-24T11:58:33.129Z,1.27
2023-03-24T12:01:04.197Z,1.27
2023-03-24T12:03:48.147Z,1.03
2023-03-24T12:06:31.501Z,1.20
2023-03-24T12:09:14.996Z,1.13
2023-03-24T12:11:54.451Z,1.10
2023-03-24T12:14:27.226Z,0.90
2023-03-24T12:16:58.932Z,0.83
2023-03-24T12:19:46.470Z,1.30
2023-03-24T12:22:23.126Z,0.80
2023-03-24T12:25:01.825Z,1.03
2023-03-24T12:27:39.748Z,1.23
2023-03-24T12:30:13.123Z,0.80
2023-03-24T12:32:51.473Z,0.80
2023-03-24T12:35:34.197Z,0.80
2023-03-24T12:38:15.407Z,0.90
2023-03-24T12:41:01.733Z,1.00
2023-03-24T12:43:38.258Z,0.70
2023-03-24T12:46:11.102Z,0.60
2023-03-24T12:48:49.962Z,0.63
2023-03-24T12:51:23.245Z,0.67
2023-03-24T12:53:58.133Z,0.80
2023-03-24T12:56:28.908Z,1.00
2023-03-24T12:59:01.483Z,0.63
2023-03-24T13:01:34.233Z,0.57
2023-03-24T13:04:09.173Z,0.70
2023-03-24T13:06:48.502Z,0.77
2023-03-24T13:09:29.884Z,0.50
2023-03-24T13:12:05.464Z,0.73
2023-03-24T13:14:47.829Z,0.60
2023-03-24T13:17:19.805Z,0.80
2023-03-24T13:19:50.850Z,0.80
2023-03-24T13:22:20.518Z,0.90
2023-03-24T13:24:49.491Z,0.70
2023-03-24T13:27:21.945Z,0.50
2023-03-24T13:30:09.343Z,0.50
2023-03-24T13:32:41.501Z,0.60
2023-03-24T13:35:17.704Z,0.60
2023-03-24T13:37:49.362Z,0.63
2023-03-24T13:40:26.186Z,0.90
2023-03-24T13:42:56.237Z,0.77
2023-03-24T13:45:38.423Z,0.83
2023-03-24T13:48:19.120Z,0.60
2023-03-24T13:50:54.024Z,1.00
2023-03-24T13:53:28.974Z,0.63
2023-03-24T13:55:57.430Z,0.50
2023-03-24T13:58:28.470Z,0.50
2023-03-24T14:01:07.050Z,0.70
2023-03-24T14:03:43.413Z,0.43
2023-03-24T14:06:12.179Z,0.50
2023-03-24T14:08:45.106Z,0.60
2023-03-24T14:11:32.442Z,0.50
2023-03-24T14:14:07.405Z,0.50
2023-03-24T14:16:44.321Z,0.63
2023-03-24T14:19:24.918Z,0.50
2023-03-24T14:21:54.541Z,0.50
2023-03-24T14:24:26.281Z,0.40
2023-03-24T14:26:55.298Z,0.40
2023-03-24T14:29:43.934Z,0.60
2023-03-24T14:32:20.543Z,0.40
2023-03-24T14:34:57.901Z,0.50
2023-03-24T14:37:27.293Z,0.50
2023-03-24T14:40:28.852Z,0.40
2023-03-24T14:42:59.831Z,0.47
2023-03-24T14:45:58.537Z,0.50
2023-03-24T14:48:45.992Z,0.50
2023-03-24T14:51:29.650Z,0.60
2023-03-24T14:53:59.240Z,0.50
2023-03-24T14:56:30.007Z,0.50
2023-03-24T14:59:02.427Z,0.37
2023-03-24T15:01:39.781Z,0.80
2023-03-24T15:04:11.365Z,1.20
2023-03-24T15:06:46.893Z,0.53
2023-03-24T15:09:17.042Z,0.60
2023-03-24T15:11:46.386Z,0.50
2023-03-24T15:14:22.466Z,0.57
2023-03-24T15:16:56.198Z,0.43
2023-03-24T15:19:26.897Z,0.60
2023-03-24T15:22:01.481Z,0.40
2023-03-24T15:24:32.415Z,0.40
2023-03-24T15:27:25.009Z,0.50
2023-03-24T15:29:57.729Z,0.40
2023-03-24T15:32:27.652Z,0.73
2023-03-24T15:34:57.372Z,0.40
2023-03-24T15:37:32.511Z,0.77
2023-03-24T15:40:12.993Z,0.53
2023-03-24T15:42:49.280Z,0.30
2023-03-24T15:45:23.026Z,0.57
2023-03-24T15:47:53.733Z,0.53
2023-03-24T15:50:32.570Z,0.70
2023-03-24T15:53:30.316Z,0.70
2023-03-24T15:56:07.144Z,0.50
2023-03-24T15:58:47.017Z,0.50
2023-03-24T16:01:18.173Z,0.50
2023-03-24T16:03:48.567Z,0.50
2023-03-24T16:06:17.841Z,0.50
2023-03-24T16:08:49.861Z,0.50
2023-03-24T16:11:18.315Z,0.47
2023-03-24T16:13:47.463Z,0.60
2023-03-24T16:16:24.482Z,0.40
2023-03-24T16:18:59.537Z,0.60
2023-03-24T16:21:29.483Z,0.60
2023-03-24T16:24:00.830Z,0.60
2023-03-24T16:26:33.333Z,0.50
2023-03-24T16:29:16.689Z,0.70
2023-03-24T16:31:45.382Z,0.40
2023-03-24T16:34:13.826Z,0.50
2023-03-24T16:36:42.529Z,0.70
2023-03-24T16:39:17.103Z,0.87
2023-03-24T16:41:45.774Z,0.70
2023-03-24T16:44:14.481Z,0.70
2023-03-24T16:46:45.889Z,0.50
2023-03-24T16:49:15.988Z,0.50
2023-03-24T16:51:44.603Z,0.60
2023-03-24T16:54:14.425Z,0.63
2023-03-24T16:56:45.437Z,0.97
2023-03-24T16:59:15.662Z,0.80
2023-03-24T17:01:46.457Z,0.73
2023-03-24T17:04:16.270Z,4.60
2023-03-24T17:06:45.566Z,0.97
2023-03-24T17:09:15.548Z,0.60
2023-03-24T17:11:45.366Z,1.37
2023-03-24T17:14:13.903Z,0.60
2023-03-24T17:16:45.427Z,0.70
2023-03-24T17:19:14.849Z,0.60
2023-03-24T17:21:46.593Z,0.67
2023-03-24T17:24:16.694Z,0.40
2023-03-24T17:26:45.530Z,0.70
2023-03-24T17:29:14.314Z,0.93
2023-03-24T17:31:43.950Z,1.50
2023-03-24T17:36:49.876Z,0.40
2023-03-24T17:39:20.366Z,0.40
2023-03-24T17:41:48.868Z,0.53
2023-03-24T17:44:18.644Z,0.70
2023-03-24T17:46:47.137Z,0.67
2023-03-24T17:49:15.810Z,0.87
2023-03-24T17:51:44.315Z,0.90
2023-03-24T17:54:15.973Z,0.40
2023-03-24T17:56:46.080Z,0.43
2023-03-24T17:59:14.600Z,0.60
2023-03-24T18:01:43.112Z,0.63
2023-03-24T18:04:11.745Z,0.60
2023-03-24T18:06:42.047Z,0.53
2023-03-24T18:09:10.797Z,0.53
2023-03-24T18:11:39.250Z,0.50
2023-03-24T18:14:11.369Z,0.60
2023-03-24T18:16:40.288Z,0.60
2023-03-24T18:19:08.812Z,0.70
2023-03-24T18:21:37.772Z,0.50
2023-03-24T18:24:06.780Z,0.67
2023-03-24T18:26:35.226Z,0.60
2023-03-24T18:29:04.210Z,0.60
2023-03-24T18:31:41.518Z,0.90
2023-03-24T18:34:19.945Z,0.60
2023-03-24T18:36:49.400Z,0.67
2023-03-24T18:39:18.889Z,0.50
2023-03-24T18:41:48.082Z,0.40
2023-03-24T18:44:18.815Z,0.50
2023-03-24T18:46:49.244Z,0.40
2023-03-24T18:49:17.683Z,0.90
2023-03-24T18:51:48.244Z,2.90
2023-03-24T18:54:21.087Z,0.77
2023-03-24T18:56:49.614Z,0.67
2023-03-24T18:59:18.149Z,0.43
2023-03-24T19:01:48.481Z,0.70
2023-03-24T19:04:19.018Z,0.40
2023-03-24T19:06:50.296Z,0.63
2023-03-24T19:09:21.055Z,0.87
2023-03-24T19:11:49.546Z,0.90
2023-03-24T19:14:20.456Z,0.80
2023-03-24T19:16:48.956Z,0.50
2023-03-24T19:19:20.492Z,0.60
2023-03-24T19:21:49.182Z,0.40
2023-03-24T19:24:17.540Z,0.40
2023-03-24T19:26:46.952Z,0.50
2023-03-24T19:29:16.156Z,1.80
2023-03-24T19:31:44.877Z,0.40
2023-03-24T19:34:13.661Z,0.50
2023-03-24T19:36:46.475Z,0.50
2023-03-24T19:39:17.533Z,0.50
2023-03-24T19:41:46.484Z,0.67
2023-03-24T19:44:15.505Z,0.90
2023-03-24T19:46:44.349Z,0.70
2023-03-24T19:49:12.838Z,0.70
2023-03-24T19:51:44.185Z,0.40
2023-03-24T19:54:12.631Z,0.60
2023-03-24T19:56:45.870Z,0.33
2023-03-24T19:59:14.442Z,0.60
2023-03-24T20:01:43.404Z,0.77
2023-03-24T20:04:12.045Z,0.60
2023-03-24T20:06:42.728Z,0.60
2023-03-24T20:09:13.108Z,0.50
2023-03-24T20:11:41.969Z,0.80
2023-03-24T20:14:10.831Z,0.40
2023-03-24T20:16:39.622Z,0.47
2023-03-24T20:19:08.309Z,0.63
2023-03-24T20:21:37.113Z,0.47
2023-03-24T20:24:06.090Z,0.43
2023-03-24T20:26:37.510Z,0.50
2023-03-24T20:29:06.799Z,0.50
2023-03-24T20:31:40.753Z,0.40
2023-03-24T20:34:09.937Z,0.63
2023-03-24T20:36:40.054Z,0.40
2023-03-24T20:39:08.833Z,0.40
2023-03-24T20:41:46.586Z,0.60
2023-03-24T20:44:20.241Z,0.50
2023-03-24T20:46:49.030Z,0.43
2023-03-24T20:49:17.639Z,0.60
2023-03-24T20:51:47.328Z,0.40
2023-03-24T20:54:18.392Z,0.63
2023-03-24T20:56:50.025Z,0.50
2023-03-24T20:59:21.935Z,0.50
2023-03-24T21:01:52.558Z,0.43
2023-03-24T21:04:21.318Z,0.60
2023-03-24T21:06:49.636Z,0.40
2023-03-24T21:09:20.342Z,0.50
2023-03-24T21:11:50.095Z,0.40
2023-03-24T21:14:18.667Z,0.50
2023-03-24T21:16:47.462Z,0.50
2023-03-24T21:19:16.637Z,0.50
2023-03-24T21:21:49.390Z,0.70
2023-03-24T21:24:18.531Z,0.57
2023-03-24T21:26:49.690Z,0.40
2023-03-24T21:29:22.497Z,0.40
2023-03-24T21:31:51.817Z,0.60
2023-03-24T21:34:20.803Z,0.37
2023-03-24T21:36:49.291Z,0.50
2023-03-24T21:39:17.760Z,0.40
2023-03-24T21:41:46.227Z,0.50
2023-03-24T21:44:16.077Z,0.50
2023-03-24T21:46:47.639Z,0.30
2023-03-24T21:49:19.034Z,0.70
2023-03-24T21:51:47.968Z,0.50
2023-03-24T21:54:16.417Z,0.50
2023-03-24T21:56:45.189Z,0.53
2023-03-24T21:59:13.583Z,0.80
2023-03-24T22:01:42.148Z,0.40
2023-03-24T22:04:13.560Z,0.70
2023-03-24T22:06:42.073Z,0.40
2023-03-24T22:09:10.752Z,0.73
2023-03-24T22:11:42.907Z,0.60
2023-03-24T22:14:12.691Z,0.40
2023-03-24T22:16:41.629Z,0.67
2023-03-24T22:19:10.209Z,0.50
2023-03-24T22:21:40.164Z,0.50
2023-03-24T22:24:08.842Z,0.70
2023-03-24T22:26:37.304Z,0.60
2023-03-24T22:29:06.074Z,0.40
2023-03-24T22:31:35.307Z,0.40
2023-03-24T22:34:03.586Z,0.57
2023-03-24T22:36:32.138Z,0.43
2023-03-24T22:39:01.788Z,1.00
2023-03-24T22:41:30.262Z,0.60
2023-03-24T22:43:58.755Z,0.40
2023-03-24T22:46:27.265Z,0.40
2023-03-24T22:48:55.722Z,0.60
2023-03-24T22:51:24.727Z,0.70
2023-03-24T22:53:53.473Z,0.40
2023-03-24T22:56:55.733Z,0.63
2023-03-24T22:59:26.213Z,0.50
2023-03-24T23:02:06.494Z,0.57
2023-03-24T23:04:37.789Z,0.60
2023-03-24T23:07:07.547Z,0.40
2023-03-24T23:09:36.616Z,0.43
2023-03-24T23:12:05.458Z,0.50
2023-03-24T23:14:38.142Z,0.43
2023-03-24T23:17:09.529Z,0.50
2023-03-24T23:19:38.286Z,0.50
2023-03-24T23:22:08.394Z,0.47
2023-03-24T23:24:39.506Z,0.50
2023-03-24T23:27:09.832Z,0.40
2023-03-24T23:29:45.100Z,0.40
2023-03-24T23:32:13.657Z,0.50
2023-03-24T23:34:45.861Z,0.53
2023-03-24T23:37:14.766Z,0.50
2023-03-24T23:39:43.017Z,0.33
2023-03-24T23:42:12.116Z,0.50
2023-03-24T23:44:42.114Z,0.70
2023-03-24T23:47:10.620Z,0.43
2023-03-24T23:49:38.995Z,0.50
2023-03-24T23:52:07.549Z,0.43
2023-03-24T23:54:39.027Z,0.60
2023-03-24T23:57:07.783Z,0.30
2023-03-24T23:59:36.562Z,0.30
